Port Jervis, New York
Current Conditions -  °F | °C
As of 8:53 PM on Wednesday 22 Oct 2014 (Local Time) from KFWN Reporting Station
Moderate Rain Moderate Rain  
Wind Chill: 53°   Ceiling: 3500
Heat Index: 53°   Visibility: 4mi
Dew Point: 48°   Wind: 8mph
Humidity: 83%   Direction: 10°N
Pressure: 29.86"   Gusts: NA
Location:  41.37°N, 74.69°W
Report Text: KFWN 230053Z AUTO 01007KT 4SM RA SCT029 OVC035 12/09 A2986 RMK AO2 RAE13B33 SLP113 P0002 T01170089
Loading
Personal Weather Stations






























Interactive Weather Map
Tropical Storm Tracking
New forecast layout! Learn more

10-Day Weather Forecast

Advertisements
Track Severe Weather on mobile